DLH47X EFHK-ESSA
Flight info
| Callsign | DLH47X |
|---|---|
| Flight time | 0h 41m |
| Altitude | 34000 |
| Route | ADIVO Y365 POGOK DCT RUNGA N872 XILAN |
| Aircraft | A20N/M-SDE2E3FGHIRWXY/LB1 |
Departure
| Time | 2026-05-07 18:36 |
|---|---|
| Airport | Helsinki Vantaa Airport (EFHK) |
Arrival
| Time | 2026-05-07 19:17 |
|---|---|
| Airport | Stockholm-Arlanda Airport (ESSA) |
| Time | Latitude | Longitude | Altitude | Speed | Heading |
|---|---|---|---|---|---|
| 2026-05-07 17:35 | 60.31630 | 24.97248 | 161 ft | 0 kts | 243° |
| 2026-05-07 17:37 | 60.31630 | 24.97249 | 161 ft | 0 kts | 243° |
| 2026-05-07 17:37 | 60.31631 | 24.97250 | 161 ft | 0 kts | 243° |
| 2026-05-07 18:08 | 60.31631 | 24.97252 | 161 ft | 0 kts | 243° |
| 2026-05-07 18:08 | 60.31632 | 24.97257 | 161 ft | 0 kts | 243° |
| 2026-05-07 18:21 | 60.31633 | 24.97259 | 161 ft | 1 kts | 243° |
| 2026-05-07 18:21 | 60.31636 | 24.97272 | 161 ft | 1 kts | 243° |
| 2026-05-07 18:21 | 60.31641 | 24.97292 | 161 ft | 2 kts | 243° |
| 2026-05-07 18:21 | 60.31647 | 24.97315 | 161 ft | 2 kts | 244° |
| 2026-05-07 18:22 | 60.31652 | 24.97341 | 161 ft | 2 kts | 265° |
| 2026-05-07 18:22 | 60.31650 | 24.97362 | 161 ft | 2 kts | 306° |
| 2026-05-07 18:22 | 60.31648 | 24.97374 | 161 ft | 0 kts | 332° |
| 2026-05-07 18:25 | 60.31652 | 24.97369 | 161 ft | 4 kts | 332° |
| 2026-05-07 18:25 | 60.31702 | 24.97316 | 161 ft | 11 kts | 332° |
| 2026-05-07 18:25 | 60.31768 | 24.97251 | 161 ft | 11 kts | 334° |
| 2026-05-07 18:25 | 60.31841 | 24.97177 | 162 ft | 12 kts | 333° |
| 2026-05-07 18:26 | 60.31922 | 24.97094 | 162 ft | 14 kts | 333° |
| 2026-05-07 18:26 | 60.32003 | 24.97011 | 162 ft | 12 kts | 333° |
| 2026-05-07 18:26 | 60.32069 | 24.96940 | 163 ft | 6 kts | 333° |
| 2026-05-07 18:26 | 60.32114 | 24.96890 | 163 ft | 8 kts | 328° |
| 2026-05-07 18:27 | 60.32160 | 24.96833 | 163 ft | 0 kts | 330° |
| 2026-05-07 18:27 | 60.32167 | 24.96825 | 163 ft | 5 kts | 327° |
| 2026-05-07 18:27 | 60.32215 | 24.96767 | 163 ft | 9 kts | 330° |
| 2026-05-07 18:27 | 60.32255 | 24.96721 | 163 ft | 9 kts | 330° |
| 2026-05-07 18:28 | 60.32316 | 24.96649 | 164 ft | 9 kts | 330° |
| 2026-05-07 18:28 | 60.32359 | 24.96600 | 164 ft | 5 kts | 329° |
| 2026-05-07 18:28 | 60.32441 | 24.96504 | 162 ft | 25 kts | 330° |
| 2026-05-07 18:28 | 60.32593 | 24.96332 | 165 ft | 24 kts | 330° |
| 2026-05-07 18:29 | 60.32739 | 24.96160 | 168 ft | 23 kts | 329° |
| 2026-05-07 18:29 | 60.32838 | 24.96041 | 170 ft | 16 kts | 329° |
| 2026-05-07 18:29 | 60.32935 | 24.95928 | 172 ft | 17 kts | 330° |
| 2026-05-07 18:29 | 60.33040 | 24.95804 | 173 ft | 17 kts | 328° |
| 2026-05-07 18:30 | 60.33129 | 24.95659 | 174 ft | 17 kts | 318° |
| 2026-05-07 18:30 | 60.33190 | 24.95530 | 176 ft | 12 kts | 303° |
| 2026-05-07 18:30 | 60.33186 | 24.95368 | 179 ft | 13 kts | 232° |
| 2026-05-07 18:30 | 60.33129 | 24.95221 | 181 ft | 14 kts | 242° |
| 2026-05-07 18:31 | 60.33115 | 24.95046 | 184 ft | 10 kts | 272° |
| 2026-05-07 18:31 | 60.33117 | 24.94958 | 185 ft | 7 kts | 270° |
| 2026-05-07 18:31 | 60.33116 | 24.94862 | 186 ft | 7 kts | 269° |
| 2026-05-07 18:31 | 60.33117 | 24.94781 | 187 ft | 4 kts | 273° |
| 2026-05-07 18:32 | 60.33118 | 24.94731 | 187 ft | 0 kts | 272° |
| 2026-05-07 18:32 | 60.33118 | 24.94706 | 188 ft | 3 kts | 272° |
| 2026-05-07 18:32 | 60.33118 | 24.94705 | 188 ft | 0 kts | 272° |
| 2026-05-07 18:33 | 60.33118 | 24.94704 | 188 ft | 1 kts | 272° |
| 2026-05-07 18:33 | 60.33120 | 24.94643 | 188 ft | 7 kts | 274° |
| 2026-05-07 18:33 | 60.33124 | 24.94522 | 190 ft | 10 kts | 270° |
| 2026-05-07 18:34 | 60.33112 | 24.94392 | 204 ft | 9 kts | 239° |
| 2026-05-07 18:34 | 60.33102 | 24.94366 | 198 ft | 0 kts | 229° |
| 2026-05-07 18:35 | 60.33099 | 24.94360 | 205 ft | 10 kts | 227° |
| 2026-05-07 18:35 | 60.32884 | 24.93889 | 182 ft | 81 kts | 229° |
| 2026-05-07 18:35 | 60.32370 | 24.92764 | 169 ft | 137 kts | 228° |
| 2026-05-07 18:36 | 60.31633 | 24.91155 | 298 ft | 169 kts | 227° |
| 2026-05-07 18:36 | 60.30846 | 24.89326 | 874 ft | 170 kts | 227° |
| 2026-05-07 18:36 | 60.30244 | 24.87405 | 1737 ft | 159 kts | 258° |
| 2026-05-07 18:36 | 60.30216 | 24.85182 | 2296 ft | 166 kts | 280° |
| 2026-05-07 18:37 | 60.30549 | 24.82823 | 2684 ft | 185 kts | 292° |
| 2026-05-07 18:37 | 60.31080 | 24.80325 | 3149 ft | 202 kts | 296° |
| 2026-05-07 18:37 | 60.31613 | 24.77525 | 3659 ft | 227 kts | 285° |
| 2026-05-07 18:37 | 60.31763 | 24.74182 | 4332 ft | 251 kts | 270° |
| 2026-05-07 18:38 | 60.31705 | 24.71767 | 4952 ft | 258 kts | 269° |
| 2026-05-07 18:38 | 60.31612 | 24.68119 | 6031 ft | 262 kts | 269° |
| 2026-05-07 18:38 | 60.31518 | 24.64418 | 7135 ft | 265 kts | 268° |
| 2026-05-07 18:38 | 60.31396 | 24.59494 | 8659 ft | 266 kts | 268° |
| 2026-05-07 18:39 | 60.31335 | 24.56970 | 9420 ft | 267 kts | 268° |
| 2026-05-07 18:39 | 60.31242 | 24.53213 | 10480 ft | 271 kts | 268° |
| 2026-05-07 18:39 | 60.31145 | 24.49286 | 11069 ft | 290 kts | 268° |
| 2026-05-07 18:39 | 60.31003 | 24.43662 | 11788 ft | 313 kts | 268° |
| 2026-05-07 18:40 | 60.30927 | 24.40746 | 12445 ft | 313 kts | 268° |
| 2026-05-07 18:40 | 60.30811 | 24.36373 | 13562 ft | 312 kts | 268° |
| 2026-05-07 18:40 | 60.30695 | 24.31997 | 14524 ft | 313 kts | 268° |
| 2026-05-07 18:40 | 60.30577 | 24.27596 | 15418 ft | 315 kts | 268° |
| 2026-05-07 18:41 | 60.30455 | 24.23114 | 16333 ft | 317 kts | 268° |
| 2026-05-07 18:41 | 60.30335 | 24.18732 | 17200 ft | 319 kts | 267° |
| 2026-05-07 18:41 | 60.30211 | 24.14254 | 18081 ft | 321 kts | 267° |
| 2026-05-07 18:41 | 60.30085 | 24.09752 | 18871 ft | 323 kts | 267° |
| 2026-05-07 18:42 | 60.29956 | 24.05217 | 19610 ft | 325 kts | 267° |
| 2026-05-07 18:42 | 60.29824 | 24.00658 | 20363 ft | 327 kts | 266° |
| 2026-05-07 18:42 | 60.29537 | 23.96097 | 21081 ft | 330 kts | 261° |
| 2026-05-07 18:42 | 60.29047 | 23.91557 | 21802 ft | 332 kts | 259° |
| 2026-05-07 18:43 | 60.28548 | 23.86991 | 22519 ft | 335 kts | 259° |
| 2026-05-07 18:43 | 60.28049 | 23.82385 | 23212 ft | 338 kts | 259° |
| 2026-05-07 18:43 | 60.27546 | 23.77746 | 23860 ft | 340 kts | 259° |
| 2026-05-07 18:43 | 60.27036 | 23.73063 | 24406 ft | 344 kts | 258° |
| 2026-05-07 18:44 | 60.26520 | 23.68343 | 24938 ft | 347 kts | 258° |
| 2026-05-07 18:44 | 60.25996 | 23.63573 | 25456 ft | 350 kts | 258° |
| 2026-05-07 18:44 | 60.25464 | 23.58748 | 25959 ft | 354 kts | 258° |
| 2026-05-07 18:44 | 60.24926 | 23.53891 | 26456 ft | 357 kts | 258° |
| 2026-05-07 18:45 | 60.24381 | 23.48979 | 26933 ft | 361 kts | 258° |
| 2026-05-07 18:45 | 60.23829 | 23.44030 | 27421 ft | 364 kts | 258° |
| 2026-05-07 18:45 | 60.23270 | 23.39040 | 27876 ft | 367 kts | 258° |
| 2026-05-07 18:45 | 60.22706 | 23.34018 | 28322 ft | 370 kts | 258° |
| 2026-05-07 18:46 | 60.22134 | 23.28954 | 28763 ft | 373 kts | 258° |
| 2026-05-07 18:46 | 60.21556 | 23.23841 | 29190 ft | 376 kts | 258° |
| 2026-05-07 18:46 | 60.20972 | 23.18701 | 29592 ft | 379 kts | 258° |
| 2026-05-07 18:46 | 60.20381 | 23.13521 | 29994 ft | 382 kts | 258° |
| 2026-05-07 18:47 | 60.19783 | 23.08296 | 30355 ft | 385 kts | 258° |
| 2026-05-07 18:47 | 60.19178 | 23.03027 | 30665 ft | 389 kts | 258° |
| 2026-05-07 18:47 | 60.18565 | 22.97718 | 30975 ft | 392 kts | 258° |
| 2026-05-07 18:47 | 60.17952 | 22.92422 | 31295 ft | 395 kts | 258° |
| 2026-05-07 18:48 | 60.17318 | 22.86965 | 31677 ft | 397 kts | 258° |
| 2026-05-07 18:48 | 60.16696 | 22.81636 | 32076 ft | 398 kts | 258° |
| 2026-05-07 18:48 | 60.16053 | 22.76155 | 32484 ft | 398 kts | 258° |
| 2026-05-07 18:48 | 60.15425 | 22.70814 | 32865 ft | 399 kts | 258° |
| 2026-05-07 18:49 | 60.14784 | 22.65385 | 33263 ft | 400 kts | 258° |
| 2026-05-07 18:49 | 60.14141 | 22.59954 | 33635 ft | 401 kts | 258° |
| 2026-05-07 18:49 | 60.13493 | 22.54510 | 34001 ft | 401 kts | 258° |
| 2026-05-07 18:49 | 60.12842 | 22.49075 | 34133 ft | 401 kts | 258° |
| 2026-05-07 18:50 | 60.12190 | 22.43647 | 34145 ft | 399 kts | 258° |
| 2026-05-07 18:50 | 60.10876 | 22.32766 | 34146 ft | 399 kts | 258° |
| 2026-05-07 18:51 | 60.09570 | 22.22024 | 34147 ft | 399 kts | 258° |
| 2026-05-07 18:51 | 60.08248 | 22.11233 | 34151 ft | 399 kts | 258° |
| 2026-05-07 18:52 | 60.06917 | 22.00452 | 34152 ft | 399 kts | 258° |
| 2026-05-07 18:52 | 60.05576 | 21.89675 | 34152 ft | 399 kts | 258° |
| 2026-05-07 18:53 | 60.04226 | 21.78903 | 34152 ft | 399 kts | 257° |
| 2026-05-07 18:53 | 60.02870 | 21.68158 | 34164 ft | 399 kts | 257° |
| 2026-05-07 18:54 | 60.01505 | 21.57420 | 34161 ft | 398 kts | 257° |
| 2026-05-07 18:54 | 60.00165 | 21.46956 | 34168 ft | 398 kts | 257° |
| 2026-05-07 18:55 | 59.98779 | 21.36235 | 34167 ft | 398 kts | 257° |
| 2026-05-07 18:55 | 59.97301 | 21.25569 | 34167 ft | 398 kts | 257° |
| 2026-05-07 18:56 | 59.95802 | 21.14927 | 34165 ft | 398 kts | 257° |
| 2026-05-07 18:56 | 59.94307 | 21.04298 | 34169 ft | 398 kts | 257° |
| 2026-05-07 18:57 | 59.92815 | 20.93738 | 34166 ft | 398 kts | 257° |
| 2026-05-07 18:57 | 59.91307 | 20.83132 | 34173 ft | 397 kts | 257° |
| 2026-05-07 18:58 | 59.89793 | 20.72551 | 34166 ft | 397 kts | 257° |
| 2026-05-07 18:58 | 59.88268 | 20.61968 | 34175 ft | 397 kts | 257° |
| 2026-05-07 18:59 | 59.86738 | 20.51413 | 34163 ft | 397 kts | 257° |
| 2026-05-07 18:59 | 59.85203 | 20.40896 | 33919 ft | 393 kts | 257° |
| 2026-05-07 18:59 | 59.84438 | 20.35679 | 33309 ft | 392 kts | 257° |
| 2026-05-07 19:00 | 59.83673 | 20.30476 | 32580 ft | 392 kts | 257° |
| 2026-05-07 19:00 | 59.82908 | 20.25286 | 31778 ft | 392 kts | 257° |
| 2026-05-07 19:00 | 59.82137 | 20.20079 | 30983 ft | 392 kts | 257° |
| 2026-05-07 19:00 | 59.81367 | 20.14889 | 30259 ft | 391 kts | 256° |
| 2026-05-07 19:01 | 59.80598 | 20.09733 | 29533 ft | 387 kts | 256° |
| 2026-05-07 19:01 | 59.79835 | 20.04628 | 28816 ft | 383 kts | 256° |
| 2026-05-07 19:01 | 59.79078 | 19.99577 | 28065 ft | 381 kts | 256° |
| 2026-05-07 19:01 | 59.78320 | 19.94537 | 27236 ft | 381 kts | 256° |
| 2026-05-07 19:02 | 59.77564 | 19.89513 | 26428 ft | 380 kts | 256° |
| 2026-05-07 19:02 | 59.76804 | 19.84489 | 25640 ft | 380 kts | 256° |
| 2026-05-07 19:02 | 59.76045 | 19.79481 | 24878 ft | 379 kts | 256° |
| 2026-05-07 19:02 | 59.75285 | 19.74481 | 24138 ft | 378 kts | 256° |
| 2026-05-07 19:03 | 59.74537 | 19.69499 | 23337 ft | 376 kts | 257° |
| 2026-05-07 19:03 | 59.73843 | 19.64505 | 22402 ft | 377 kts | 257° |
| 2026-05-07 19:03 | 59.73171 | 19.59511 | 21679 ft | 370 kts | 257° |
| 2026-05-07 19:03 | 59.72520 | 19.54701 | 21126 ft | 354 kts | 257° |
| 2026-05-07 19:04 | 59.71889 | 19.50085 | 20562 ft | 340 kts | 257° |
| 2026-05-07 19:04 | 59.71278 | 19.45647 | 20020 ft | 328 kts | 257° |
| 2026-05-07 19:04 | 59.70685 | 19.41368 | 19494 ft | 317 kts | 257° |
| 2026-05-07 19:04 | 59.70105 | 19.37197 | 18987 ft | 319 kts | 257° |
| 2026-05-07 19:05 | 59.69492 | 19.32753 | 18475 ft | 348 kts | 257° |
| 2026-05-07 19:05 | 59.68849 | 19.28138 | 18205 ft | 354 kts | 257° |
| 2026-05-07 19:05 | 59.68180 | 19.23378 | 17606 ft | 357 kts | 257° |
| 2026-05-07 19:05 | 59.67517 | 19.18685 | 16864 ft | 359 kts | 257° |
| 2026-05-07 19:06 | 59.66845 | 19.13936 | 16122 ft | 358 kts | 257° |
| 2026-05-07 19:06 | 59.66874 | 19.04407 | 14701 ft | 349 kts | 287° |
| 2026-05-07 19:06 | 59.67603 | 18.99840 | 14018 ft | 347 kts | 288° |
| 2026-05-07 19:07 | 59.68327 | 18.95285 | 13256 ft | 346 kts | 288° |
| 2026-05-07 19:07 | 59.69044 | 18.90743 | 12505 ft | 345 kts | 288° |
| 2026-05-07 19:07 | 59.69754 | 18.86223 | 11775 ft | 344 kts | 288° |
| 2026-05-07 19:07 | 59.70460 | 18.81702 | 11065 ft | 343 kts | 288° |
| 2026-05-07 19:08 | 59.71151 | 18.77272 | 10790 ft | 329 kts | 288° |
| 2026-05-07 19:08 | 59.71810 | 18.73039 | 10631 ft | 313 kts | 288° |
| 2026-05-07 19:08 | 59.72424 | 18.69064 | 10435 ft | 292 kts | 288° |
| 2026-05-07 19:08 | 59.73001 | 18.65326 | 10301 ft | 277 kts | 288° |
| 2026-05-07 19:09 | 59.73551 | 18.61757 | 10033 ft | 266 kts | 288° |
| 2026-05-07 19:09 | 59.74091 | 18.58251 | 9358 ft | 265 kts | 288° |
| 2026-05-07 19:09 | 59.74630 | 18.54751 | 8702 ft | 265 kts | 288° |
| 2026-05-07 19:09 | 59.75167 | 18.51261 | 8070 ft | 264 kts | 288° |
| 2026-05-07 19:10 | 59.75701 | 18.47777 | 7441 ft | 264 kts | 288° |
| 2026-05-07 19:10 | 59.76235 | 18.44300 | 6839 ft | 263 kts | 288° |
| 2026-05-07 19:10 | 59.76748 | 18.40823 | 6226 ft | 263 kts | 284° |
| 2026-05-07 19:10 | 59.77042 | 18.37291 | 5622 ft | 262 kts | 278° |
| 2026-05-07 19:11 | 59.77262 | 18.33703 | 5032 ft | 262 kts | 277° |
| 2026-05-07 19:11 | 59.77485 | 18.30119 | 4423 ft | 261 kts | 277° |
| 2026-05-07 19:11 | 59.77717 | 18.26553 | 3841 ft | 260 kts | 277° |
| 2026-05-07 19:11 | 59.77958 | 18.23003 | 3267 ft | 260 kts | 277° |
| 2026-05-07 19:12 | 59.78211 | 18.19456 | 2728 ft | 258 kts | 277° |
| 2026-05-07 19:12 | 59.78468 | 18.15962 | 2543 ft | 260 kts | 277° |
| 2026-05-07 19:12 | 59.78732 | 18.12411 | 2504 ft | 259 kts | 277° |
| 2026-05-07 19:12 | 59.78996 | 18.08873 | 2502 ft | 259 kts | 277° |
| 2026-05-07 19:13 | 59.79208 | 18.05312 | 2498 ft | 259 kts | 267° |
| 2026-05-07 19:13 | 59.78733 | 18.01984 | 2499 ft | 244 kts | 234° |
| 2026-05-07 19:13 | 59.77490 | 18.00056 | 2492 ft | 215 kts | 195° |
| 2026-05-07 19:13 | 59.76082 | 17.99637 | 2431 ft | 193 kts | 184° |
| 2026-05-07 19:14 | 59.74802 | 17.99390 | 2166 ft | 182 kts | 186° |
| 2026-05-07 19:14 | 59.73540 | 17.99026 | 1916 ft | 181 kts | 188° |
| 2026-05-07 19:14 | 59.72326 | 17.98592 | 1676 ft | 175 kts | 189° |
| 2026-05-07 19:14 | 59.71170 | 17.98173 | 1431 ft | 159 kts | 189° |
| 2026-05-07 19:15 | 59.70123 | 17.97792 | 1216 ft | 147 kts | 189° |
| 2026-05-07 19:15 | 59.69173 | 17.97445 | 1030 ft | 134 kts | 188° |
| 2026-05-07 19:15 | 59.68300 | 17.97127 | 832 ft | 123 kts | 188° |
| 2026-05-07 19:15 | 59.67437 | 17.96815 | 662 ft | 126 kts | 188° |
| 2026-05-07 19:16 | 59.66584 | 17.96504 | 487 ft | 124 kts | 187° |
| 2026-05-07 19:16 | 59.65732 | 17.96195 | 329 ft | 125 kts | 188° |
| 2026-05-07 19:16 | 59.64882 | 17.95882 | 164 ft | 123 kts | 188° |
| 2026-05-07 19:16 | 59.64107 | 17.95606 | 145 ft | 99 kts | 191° |
| 2026-05-07 19:17 | 59.63530 | 17.95387 | 144 ft | 59 kts | 199° |
| 2026-05-07 19:17 | 59.63319 | 17.95167 | 139 ft | 21 kts | 217° |
| 2026-05-07 19:17 | 59.63253 | 17.95054 | 138 ft | 1 kts | 229° |
| 2026-05-07 19:17 | 59.63245 | 17.95030 | 138 ft | 3 kts | 239° |
| 2026-05-07 19:18 | 59.63254 | 17.94946 | 138 ft | 9 kts | 311° |
| 2026-05-07 19:18 | 59.63324 | 17.94927 | 138 ft | 9 kts | 14° |
| 2026-05-07 19:18 | 59.63402 | 17.94946 | 138 ft | 13 kts | 10° |
| 2026-05-07 19:18 | 59.63506 | 17.94984 | 138 ft | 17 kts | 9° |
| 2026-05-07 19:19 | 59.63634 | 17.95027 | 138 ft | 20 kts | 10° |
| 2026-05-07 19:19 | 59.63784 | 17.95082 | 138 ft | 23 kts | 11° |
| 2026-05-07 19:19 | 59.63936 | 17.95136 | 138 ft | 23 kts | 9° |
| 2026-05-07 19:19 | 59.64087 | 17.95187 | 138 ft | 12 kts | 12° |
| 2026-05-07 19:20 | 59.64132 | 17.95207 | 138 ft | 0 kts | 14° |
| 2026-05-07 19:20 | 59.64148 | 17.95215 | 138 ft | 8 kts | 14° |
| 2026-05-07 19:20 | 59.64242 | 17.95238 | 138 ft | 17 kts | 353° |
| 2026-05-07 19:20 | 59.64341 | 17.95154 | 138 ft | 16 kts | 323° |
| 2026-05-07 19:21 | 59.64398 | 17.94998 | 138 ft | 14 kts | 287° |
| 2026-05-07 19:21 | 59.64399 | 17.94816 | 138 ft | 12 kts | 258° |
| 2026-05-07 19:21 | 59.64359 | 17.94653 | 138 ft | 13 kts | 233° |
| 2026-05-07 19:21 | 59.64311 | 17.94505 | 138 ft | 14 kts | 239° |
| 2026-05-07 19:22 | 59.64253 | 17.94314 | 138 ft | 18 kts | 239° |
| 2026-05-07 19:22 | 59.64183 | 17.94083 | 137 ft | 21 kts | 238° |
| 2026-05-07 19:22 | 59.64100 | 17.93822 | 137 ft | 24 kts | 237° |
| 2026-05-07 19:22 | 59.64028 | 17.93592 | 137 ft | 17 kts | 239° |
| 2026-05-07 19:23 | 59.63996 | 17.93473 | 137 ft | 12 kts | 248° |
| 2026-05-07 19:23 | 59.63962 | 17.93268 | 137 ft | 11 kts | 211° |
| 2026-05-07 19:23 | 59.63922 | 17.93269 | 137 ft | 7 kts | 149° |
| 2026-05-07 19:23 | 59.63879 | 17.93311 | 137 ft | 8 kts | 194° |
| 2026-05-07 19:24 | 59.63853 | 17.93290 | 137 ft | 0 kts | 199° |
| 2026-05-07 19:24 | 59.63852 | 17.93289 | 137 ft | 1 kts | 199° |
| 2026-05-07 19:25 | 59.63844 | 17.93284 | 137 ft | 0 kts | 200° |